Eden, Georgia
Current Conditions -  °F | °C
As of 12:53 PM on Thursday 27 Nov 2014 (Local Time) from KSAV Reporting Station
Few Clouds Few Clouds  
Wind Chill: 57°   Ceiling: Unl
Heat Index: 57°   Visibility: 10mi
Dew Point: 30°   Wind: 20mph
Humidity: 36%   Direction: 310°NW
Pressure: 30.17"   Gusts: 25mph
Location:  32.17°N, 81.39°W
Report Text: KSAV 271753Z 31017G22KT 10SM FEW035 14/M01 A3017 RMK AO2 PK WND 28031/1713 SLP215 T01391011 10144 20061 58014
Loading
Personal Weather Stations






























Interactive Weather Map New forecast layout! Learn more

10-Day Weather Forecast

Advertisements
Track Severe Weather on mobile